Time;durP1;ratioP1;P1;durP2;ratioP2;P2;SDS_P1;SDS_P2;PMS_P1;PMS_P2;Temp;Humidity;BMP_temperature;BMP_pressure;BME280_temperature;BME280_humidity;BME280_pressure;Samples;Min_cycle;Max_cycle;Signal;HPM_P1;HPM_P2
2023/10/14 00:01:12;;;;;;;17.70;2.92;;;13.30;99.90;;;;;;5032115;28;20042;-87
2023/10/14 00:03:41;;;;;;;10.00;2.20;;;13.30;99.90;;;;;;5032572;28;20184;-85
2023/10/14 00:06:08;;;;;;;11.55;2.47;;;13.30;99.90;;;;;;5032197;28;20046;-84
2023/10/14 00:08:35;;;;;;;11.30;1.55;;;13.30;99.90;;;;;;5033245;28;20080;-85
2023/10/14 00:11:07;;;;;;;13.63;2.22;;;13.30;99.90;;;;;;5032292;28;20038;-84
2023/10/14 00:13:42;;;;;;;16.73;2.30;;;13.30;99.90;;;;;;5032431;28;20389;-85
2023/10/14 00:16:13;;;;;;;15.60;2.35;;;13.30;99.90;;;;;;5033267;28;20492;-84
2023/10/14 00:18:43;;;;;;;13.23;2.47;;;13.30;99.90;;;;;;5032049;28;20056;-84
2023/10/14 00:21:12;;;;;;;18.95;2.45;;;13.20;99.90;;;;;;5031734;28;20045;-85
2023/10/14 00:23:38;;;;;;;11.75;2.20;;;13.20;99.90;;;;;;5031862;28;20489;-83
2023/10/14 00:26:06;;;;;;;12.65;2.05;;;13.20;99.90;;;;;;5031979;28;20489;-82
2023/10/14 00:28:32;;;;;;;8.52;1.98;;;13.20;99.90;;;;;;5033415;28;20061;-84
2023/10/14 00:30:58;;;;;;;12.88;2.10;;;13.20;99.90;;;;;;5031977;28;20478;-86
2023/10/14 00:33:24;;;;;;;12.27;2.00;;;13.10;99.90;;;;;;5033206;28;20045;-84
2023/10/14 00:35:56;;;;;;;14.55;2.03;;;13.10;99.90;;;;;;5032039;28;20049;-86
2023/10/14 00:38:23;;;;;;;9.68;2.03;;;13.20;99.90;;;;;;5031924;28;20057;-87
2023/10/14 00:40:49;;;;;;;11.98;2.05;;;13.10;99.90;;;;;;5031906;28;20063;-85
2023/10/14 00:43:15;;;;;;;12.75;1.70;;;13.10;99.90;;;;;;5035676;28;20128;-84
2023/10/14 00:45:43;;;;;;;7.38;1.55;;;13.10;99.90;;;;;;5036741;28;20041;-86
2023/10/14 00:48:14;;;;;;;8.95;1.30;;;13.00;99.90;;;;;;5035322;28;20493;-85
2023/10/14 00:50:41;;;;;;;11.13;1.80;;;13.10;99.90;;;;;;5035586;28;20064;-85
2023/10/14 00:53:07;;;;;;;7.07;1.52;;;13.10;99.90;;;;;;5035286;28;20045;-86
2023/10/14 00:55:46;;;;;;;12.35;2.55;;;13.10;99.90;;;;;;5035367;28;20056;-86
2023/10/14 00:58:20;;;;;;;12.80;1.88;;;13.10;99.90;;;;;;5035189;28;20045;-85
2023/10/14 01:00:56;;;;;;;10.15;1.42;;;13.00;99.90;;;;;;5036280;28;20548;-86
2023/10/14 01:03:23;;;;;;;10.40;1.45;;;13.00;99.90;;;;;;5036489;28;20121;-85
2023/10/14 01:05:48;;;;;;;10.68;1.73;;;13.00;99.90;;;;;;5035106;28;20473;-83
2023/10/14 01:08:14;;;;;;;6.53;1.40;;;13.00;99.90;;;;;;5035170;28;20128;-87
2023/10/14 01:10:42;;;;;;;12.82;1.95;;;13.00;99.90;;;;;;5034961;28;20049;-86
2023/10/14 01:13:13;;;;;;;9.75;1.50;;;13.10;99.90;;;;;;5035218;28;20132;-86
2023/10/14 01:15:47;;;;;;;6.32;1.50;;;13.00;99.90;;;;;;5034857;28;20120;-88
2023/10/14 01:18:14;;;;;;;14.68;1.85;;;13.10;99.90;;;;;;5034984;28;20052;-86
2023/10/14 01:20:44;;;;;;;18.75;2.47;;;13.10;99.90;;;;;;5034806;28;20045;-86
2023/10/14 01:23:14;;;;;;;13.43;2.22;;;13.00;99.90;;;;;;5034467;28;20060;-88
2023/10/14 01:25:52;;;;;;;10.38;1.90;;;13.10;99.90;;;;;;5034839;28;20096;-86
2023/10/14 01:28:23;;;;;;;11.00;2.97;;;13.10;99.90;;;;;;5035093;28;20041;-88
2023/10/14 01:31:10;;;;;;;12.40;1.92;;;13.10;99.90;;;;;;5034831;28;20053;-87
2023/10/14 01:33:36;;;;;;;11.02;1.70;;;13.10;99.90;;;;;;5035854;28;20041;-85
2023/10/14 01:36:02;;;;;;;15.77;2.75;;;13.10;99.90;;;;;;5035836;28;20042;-86
2023/10/14 01:38:31;;;;;;;10.48;2.28;;;13.10;99.90;;;;;;5034671;28;20056;-88
2023/10/14 01:40:57;;;;;;;14.30;2.50;;;13.10;99.90;;;;;;5034344;28;20045;-87
2023/10/14 01:43:30;;;;;;;13.45;1.90;;;13.10;99.90;;;;;;5035745;28;20129;-83
2023/10/14 01:48:21;;;;;;;11.45;1.67;;;13.10;99.90;;;;;;5034349;28;20424;-87
2023/10/14 01:50:54;;;;;;;13.30;1.50;;;13.10;99.90;;;;;;5035750;28;20045;-90
2023/10/14 01:53:27;;;;;;;10.98;1.20;;;13.00;99.90;;;;;;5034287;28;20045;-88
2023/10/14 01:55:54;;;;;;;12.32;1.58;;;13.00;99.90;;;;;;5034552;28;20167;-86
2023/10/14 01:58:22;;;;;;;9.80;1.50;;;13.00;99.90;;;;;;5035665;28;20053;-87
2023/10/14 02:03:51;;;;;;;8.35;1.30;;;13.00;99.90;;;;;;5034380;28;20061;-87
2023/10/14 02:06:26;;;;;;;12.18;1.88;;;13.00;99.90;;;;;;5034171;28;20053;-90
2023/10/14 02:08:54;;;;;;;10.35;1.25;;;13.00;99.90;;;;;;5035437;28;20132;-85
2023/10/14 02:11:21;;;;;;;8.15;1.25;;;13.00;99.90;;;;;;5035223;28;20042;-87
2023/10/14 02:13:50;;;;;;;11.85;1.92;;;12.90;99.90;;;;;;5033909;28;20397;-88
2023/10/14 02:16:29;;;;;;;12.65;1.38;;;13.00;99.90;;;;;;5035201;28;20080;-88
2023/10/14 02:19:17;;;;;;;11.20;1.80;;;12.90;99.90;;;;;;5034120;28;20057;-86
2023/10/14 02:21:43;;;;;;;10.00;1.98;;;12.90;99.90;;;;;;5033579;28;20053;-89
2023/10/14 02:24:10;;;;;;;8.57;1.30;;;12.90;99.90;;;;;;5033327;28;20465;-87
2023/10/14 02:26:38;;;;;;;13.98;1.50;;;12.90;99.90;;;;;;5034973;28;20049;-88
2023/10/14 02:29:10;;;;;;;9.63;1.30;;;12.90;99.90;;;;;;5033757;28;20037;-89
2023/10/14 02:31:36;;;;;;;8.65;1.50;;;12.90;99.90;;;;;;5033924;28;20504;-89
2023/10/14 02:34:06;;;;;;;11.57;1.33;;;12.90;99.90;;;;;;5033797;28;20054;-87
2023/10/14 02:36:48;;;;;;;16.10;1.98;;;12.90;99.90;;;;;;5033657;28;20049;-87
2023/10/14 02:39:17;;;;;;;11.55;1.85;;;12.90;99.90;;;;;;5033286;28;20057;-88
2023/10/14 02:41:44;;;;;;;16.63;2.10;;;12.80;99.90;;;;;;5033365;28;20045;-86
2023/10/14 02:46:45;;;;;;;12.02;1.90;;;12.90;99.90;;;;;;5034485;28;20389;-87
2023/10/14 02:49:14;;;;;;;11.88;2.42;;;12.90;99.90;;;;;;5033432;28;20088;-88
2023/10/14 02:51:44;;;;;;;17.52;1.80;;;12.80;99.90;;;;;;5034522;28;20037;-88
2023/10/14 02:54:26;;;;;;;8.68;1.20;;;12.80;99.90;;;;;;5033035;28;20052;-87
2023/10/14 02:56:59;;;;;;;14.93;1.67;;;12.80;99.90;;;;;;5034536;28;20049;-88
2023/10/14 02:59:44;;;;;;;9.68;1.38;;;12.70;99.90;;;;;;5033072;28;20053;-85
2023/10/14 03:02:15;;;;;;;9.85;1.55;;;12.70;99.90;;;;;;5033261;28;20477;-85
2023/10/14 03:07:23;;;;;;;14.93;2.05;;;12.70;99.90;;;;;;5034322;28;20107;-86
2023/10/14 03:09:50;;;;;;;8.13;1.90;;;12.70;99.90;;;;;;5016340;28;20049;-87
2023/10/14 03:12:18;;;;;;;9.48;2.38;;;12.80;99.90;;;;;;5032969;28;20088;-88
2023/10/14 03:14:53;;;;;;;17.90;2.25;;;12.70;99.90;;;;;;5034086;28;20048;-86
2023/10/14 03:17:51;;;;;;;15.65;1.50;;;12.70;99.90;;;;;;5032682;28;20085;-85
2023/10/14 03:23:18;;;;;;;14.13;1.73;;;12.70;99.90;;;;;;5033670;28;20119;-87
2023/10/14 03:25:49;;;;;;;17.77;2.83;;;12.70;99.90;;;;;;5032686;28;20512;-85
2023/10/14 03:28:19;;;;;;;7.85;1.35;;;12.60;99.90;;;;;;5032667;28;20378;-88
2023/10/14 03:30:56;;;;;;;12.43;1.50;;;12.70;99.90;;;;;;5032423;28;20079;-88
2023/10/14 03:33:27;;;;;;;11.88;2.17;;;12.70;99.90;;;;;;5032677;28;20107;-87
2023/10/14 03:36:00;;;;;;;14.15;2.38;;;12.70;99.90;;;;;;5032676;28;20531;-87
2023/10/14 03:38:38;;;;;;;12.15;2.10;;;12.70;99.90;;;;;;5032595;28;20103;-87
2023/10/14 03:41:11;;;;;;;10.00;1.60;;;12.70;99.90;;;;;;5032387;28;20041;-87
2023/10/14 03:43:48;;;;;;;14.82;1.70;;;12.70;99.90;;;;;;5032777;28;20045;-91
2023/10/14 03:46:15;;;;;;;12.10;2.47;;;12.70;99.90;;;;;;5032349;28;20051;-87
2023/10/14 03:48:48;;;;;;;14.40;1.90;;;12.70;99.90;;;;;;5033596;28;20053;-88
2023/10/14 03:51:27;;;;;;;;;;;12.70;99.90;;;;;;5033089;28;20058;-87
2023/10/14 03:53:57;;;;;;;13.68;4.13;;;12.70;99.90;;;;;;5032216;28;19967;-87
2023/10/14 03:56:27;;;;;;;15.65;2.15;;;12.80;99.90;;;;;;5032476;28;20081;-85
2023/10/14 03:58:57;;;;;;;10.70;1.73;;;12.70;99.90;;;;;;5032276;28;20457;-86
2023/10/14 04:04:19;;;;;;;11.27;1.83;;;12.80;99.90;;;;;;5032494;28;20500;-87
2023/10/14 04:07:13;;;;;;;11.32;1.42;;;12.80;99.90;;;;;;5032466;28;20132;-85
2023/10/14 04:09:43;;;;;;;16.60;2.13;;;12.70;99.90;;;;;;5032206;28;20053;-85
2023/10/14 04:12:12;;;;;;;15.70;1.92;;;12.70;99.90;;;;;;5032583;28;20054;-86
2023/10/14 04:14:41;;;;;;;15.05;2.97;;;12.80;99.90;;;;;;5032284;28;20081;-87
2023/10/14 04:17:18;;;;;;;14.80;2.60;;;12.70;99.90;;;;;;5035723;28;20067;-85
2023/10/14 04:19:44;;;;;;;13.82;2.50;;;12.60;99.90;;;;;;5035975;28;20128;-89
2023/10/14 04:24:51;;;;;;;10.25;1.30;;;12.70;99.90;;;;;;5035902;28;20057;-85
2023/10/14 04:27:17;;;;;;;14.52;2.15;;;12.70;99.90;;;;;;5036063;28;20038;-90
2023/10/14 04:29:51;;;;;;;12.13;2.40;;;12.70;99.90;;;;;;5035758;28;20041;-86
2023/10/14 04:32:26;;;;;;;10.73;2.17;;;12.70;99.90;;;;;;5035763;28;20049;-87
2023/10/14 04:34:54;;;;;;;19.58;3.13;;;12.60;99.90;;;;;;5037086;28;20124;-85
2023/10/14 04:37:21;;;;;;;18.42;3.50;;;12.60;99.90;;;;;;5035598;28;20052;-86
2023/10/14 04:39:47;;;;;;;18.63;2.38;;;12.60;99.90;;;;;;5035773;28;20103;-87
2023/10/14 04:44:54;;;;;;;14.57;2.33;;;12.60;99.90;;;;;;5035876;28;20111;-86
2023/10/14 04:47:38;;;;;;;11.60;2.15;;;12.60;99.90;;;;;;5035517;28;20061;-88
2023/10/14 04:50:14;;;;;;;16.00;2.67;;;12.60;99.90;;;;;;5035776;28;20444;-90
2023/10/14 04:52:48;;;;;;;13.93;3.50;;;12.60;99.90;;;;;;5035514;28;20041;-91
2023/10/14 04:55:25;;;;;;;21.27;2.65;;;12.60;99.90;;;;;;5035427;28;20124;-91
2023/10/14 05:00:46;;;;;;;19.98;2.20;;;12.70;99.90;;;;;;5036627;28;20140;-88
2023/10/14 05:03:13;;;;;;;19.27;3.33;;;12.60;99.90;;;;;;5035210;28;20378;-91
2023/10/14 05:05:44;;;;;;;13.20;2.20;;;12.70;99.90;;;;;;5035428;28;20188;-87
2023/10/14 05:08:15;;;;;;;10.98;1.90;;;12.70;99.90;;;;;;5035128;28;20064;-86
2023/10/14 05:10:47;;;;;;;16.65;2.20;;;12.60;99.90;;;;;;5035288;28;20416;-88
2023/10/14 05:13:13;;;;;;;17.00;2.50;;;12.60;99.90;;;;;;5035025;28;20052;-87
2023/10/14 05:15:43;;;;;;;13.88;2.17;;;12.60;99.90;;;;;;5036256;28;20491;-86
2023/10/14 05:18:16;;;;;;;14.65;2.00;;;12.60;99.90;;;;;;5035197;28;20049;-87
2023/10/14 05:21:09;;;;;;;17.63;1.95;;;12.60;99.90;;;;;;5035017;28;20056;-87
2023/10/14 05:23:34;;;;;;;12.68;2.05;;;12.70;99.90;;;;;;5034461;28;20062;-87
2023/10/14 05:26:06;;;;;;;11.27;1.85;;;12.70;99.90;;;;;;5034743;28;20057;-88
2023/10/14 05:28:35;;;;;;;13.82;2.00;;;12.70;99.90;;;;;;5034581;28;20103;-91
2023/10/14 05:31:08;;;;;;;19.05;3.28;;;12.70;99.90;;;;;;5034961;28;20103;-88
2023/10/14 05:33:37;;;;;;;17.25;2.83;;;12.60;99.90;;;;;;5035344;28;20367;-85
2023/10/14 05:36:05;;;;;;;11.55;1.95;;;12.60;99.90;;;;;;5034794;28;20042;-88
2023/10/14 05:38:31;;;;;;;13.85;2.58;;;12.60;99.90;;;;;;5034814;28;20049;-87
2023/10/14 05:41:00;;;;;;;15.73;2.30;;;12.60;99.90;;;;;;5034537;28;20045;-87
2023/10/14 05:43:26;;;;;;;15.88;2.33;;;12.60;99.90;;;;;;5034626;28;20041;-90
2023/10/14 05:45:52;;;;;;;16.50;2.08;;;12.60;99.90;;;;;;5035699;28;20038;-88
2023/10/14 05:48:19;;;;;;;16.75;2.13;;;12.50;99.90;;;;;;5035594;28;20095;-86
2023/10/14 05:50:44;;;;;;;14.68;1.95;;;12.50;99.90;;;;;;5034227;28;20103;-88
2023/10/14 05:53:12;;;;;;;14.63;2.95;;;12.50;99.90;;;;;;5034162;28;20132;-87
2023/10/14 05:55:39;;;;;;;18.17;2.80;;;12.50;99.90;;;;;;5033479;28;20448;-86
2023/10/14 05:58:07;;;;;;;15.52;3.05;;;12.40;99.90;;;;;;5034031;28;20392;-85
2023/10/14 06:00:34;;;;;;;11.50;1.77;;;12.50;99.90;;;;;;5033897;28;20167;-85
2023/10/14 06:03:00;;;;;;;17.85;2.42;;;12.40;99.90;;;;;;5034209;28;20045;-88
2023/10/14 06:05:29;;;;;;;11.25;2.10;;;12.40;99.90;;;;;;5034160;28;20056;-88
2023/10/14 06:08:32;;;;;;;18.30;3.47;;;12.40;99.90;;;;;;5034144;28;20049;-87
2023/10/14 06:10:47;;;;;;;19.25;2.08;;;12.40;99.90;;;;;;5031786;28;20556;-88
2023/10/14 06:13:16;;;;;;;14.10;2.38;;;12.40;99.90;;;;;;5034139;28;20057;-91
2023/10/14 06:15:44;;;;;;;14.27;3.55;;;12.40;99.90;;;;;;5034013;28;20389;-85
2023/10/14 06:18:13;;;;;;;16.00;2.38;;;12.40;99.90;;;;;;5033965;28;20091;-87
2023/10/14 06:20:41;;;;;;;18.27;2.03;;;12.50;99.90;;;;;;5033691;28;20045;-85
2023/10/14 06:23:11;;;;;;;20.42;2.85;;;12.50;99.90;;;;;;5033467;28;20061;-88
2023/10/14 06:25:38;;;;;;;14.82;2.53;;;12.50;99.90;;;;;;5033283;28;20425;-90
2023/10/14 06:28:04;;;;;;;15.82;2.00;;;12.50;99.90;;;;;;5033431;28;20511;-92
2023/10/14 06:30:31;;;;;;;14.13;2.25;;;12.50;99.90;;;;;;5034889;28;20129;-85
2023/10/14 06:33:05;;;;;;;13.63;2.55;;;12.50;99.90;;;;;;5033381;28;20054;-87
2023/10/14 06:35:37;;;;;;;14.82;2.22;;;12.50;99.90;;;;;;5033449;28;20128;-88
2023/10/14 06:38:04;;;;;;;14.82;1.80;;;12.60;99.90;;;;;;5027835;28;20064;-85
2023/10/14 06:40:36;;;;;;;12.55;2.28;;;12.60;99.90;;;;;;5012917;28;20054;-88
2023/10/14 06:43:08;;;;;;;7.97;1.83;;;12.60;99.90;;;;;;5013665;28;20046;-85
2023/10/14 06:45:34;;;;;;;11.30;2.03;;;12.60;99.90;;;;;;5014919;28;20049;-84
2023/10/14 06:48:05;;;;;;;13.38;2.05;;;12.60;99.90;;;;;;5013500;28;20050;-88
2023/10/14 06:50:32;;;;;;;11.45;2.75;;;12.60;99.90;;;;;;5013395;28;20056;-88
2023/10/14 06:52:59;;;;;;;19.00;2.40;;;12.70;99.90;;;;;;5013404;28;20058;-88
2023/10/14 06:55:26;;;;;;;13.38;1.63;;;12.60;99.90;;;;;;5014429;28;20107;-87
2023/10/14 06:57:54;;;;;;;13.68;2.70;;;12.70;99.90;;;;;;5013353;28;20049;-87
2023/10/14 07:00:26;;;;;;;15.15;2.35;;;12.60;99.90;;;;;;5014345;28;20068;-87
2023/10/14 07:02:57;;;;;;;11.70;1.88;;;12.70;99.90;;;;;;5012958;28;20049;-87
2023/10/14 07:05:23;;;;;;;13.15;2.67;;;12.70;99.90;;;;;;5013229;28;20049;-86
2023/10/14 07:07:49;;;;;;;15.02;2.80;;;12.80;99.90;;;;;;5012909;28;20082;-87
2023/10/14 07:10:16;;;;;;;16.25;2.72;;;12.80;99.90;;;;;;5013106;28;20069;-86
2023/10/14 07:12:42;;;;;;;13.55;2.15;;;12.80;99.90;;;;;;5013093;28;20486;-87
2023/10/14 07:15:13;;;;;;;12.60;1.95;;;12.80;99.90;;;;;;5012617;28;20064;-87
2023/10/14 07:17:43;;;;;;;13.93;1.95;;;12.90;99.90;;;;;;5013020;28;20749;-89
2023/10/14 07:20:12;;;;;;;17.00;2.03;;;12.90;99.90;;;;;;5012543;28;20509;-88
2023/10/14 07:22:42;;;;;;;19.75;2.70;;;12.90;99.90;;;;;;5012358;28;20401;-86
2023/10/14 07:25:11;;;;;;;13.18;1.90;;;13.00;99.90;;;;;;5014156;28;20405;-90
2023/10/14 07:27:38;;;;;;;14.70;2.28;;;12.90;99.90;;;;;;5012951;28;20112;-84
2023/10/14 07:30:14;;;;;;;12.27;2.47;;;12.90;99.90;;;;;;5012714;28;20180;-92
2023/10/14 07:32:42;;;;;;;9.80;2.65;;;12.90;99.90;;;;;;5013037;28;20053;-93
2023/10/14 07:35:11;;;;;;;13.88;1.80;;;12.90;99.90;;;;;;5012639;28;20050;-90
2023/10/14 07:37:41;;;;;;;10.55;1.95;;;12.90;99.90;;;;;;5012730;28;20093;-89
2023/10/14 07:40:11;;;;;;;13.60;1.88;;;12.90;99.90;;;;;;5014120;28;20046;-91
2023/10/14 07:42:38;;;;;;;10.50;2.00;;;13.00;99.90;;;;;;5013238;28;20041;-92
2023/10/14 07:45:05;;;;;;;15.73;1.65;;;13.00;99.90;;;;;;5013752;28;20453;-86
2023/10/14 07:47:31;;;;;;;15.27;2.22;;;13.00;99.90;;;;;;5014024;28;20041;-87
2023/10/14 07:49:57;;;;;;;13.15;1.80;;;13.00;99.90;;;;;;5012160;28;20057;-88
2023/10/14 07:52:23;;;;;;;16.90;2.00;;;13.00;99.90;;;;;;5012278;28;20061;-86
2023/10/14 07:54:51;;;;;;;13.45;2.22;;;13.00;99.90;;;;;;5013654;28;20050;-86
2023/10/14 07:57:17;;;;;;;12.73;1.58;;;13.10;99.90;;;;;;5012244;28;20100;-86
2023/10/14 07:59:43;;;;;;;8.85;1.50;;;13.20;99.90;;;;;;5013510;28;20042;-89
2023/10/14 08:02:10;;;;;;;13.40;1.83;;;13.20;99.90;;;;;;5012217;28;20136;-87
2023/10/14 08:04:35;;;;;;;13.63;1.90;;;13.20;99.90;;;;;;5013486;28;20075;-90
2023/10/14 08:07:05;;;;;;;11.07;1.70;;;13.10;99.90;;;;;;5013558;28;20084;-85
2023/10/14 08:09:32;;;;;;;7.43;1.48;;;13.00;99.90;;;;;;5012083;28;20053;-88
2023/10/14 08:11:59;;;;;;;12.30;1.55;;;12.90;99.90;;;;;;5012253;28;20482;-83
2023/10/14 08:14:28;;;;;;;10.18;1.58;;;13.00;99.90;;;;;;5012360;28;20057;-85
2023/10/14 08:16:57;;;;;;;9.98;1.30;;;13.10;99.90;;;;;;5012350;28;20046;-85
2023/10/14 08:19:23;;;;;;;8.82;1.50;;;13.00;99.90;;;;;;5011940;28;20421;-87
2023/10/14 08:21:50;;;;;;;12.45;2.60;;;13.10;99.90;;;;;;5011958;28;20050;-86
2023/10/14 08:24:20;;;;;;;12.15;1.52;;;13.10;99.90;;;;;;5011786;28;20054;-85
2023/10/14 08:26:46;;;;;;;12.32;1.73;;;13.10;99.90;;;;;;5012160;28;20061;-83
2023/10/14 08:29:12;;;;;;;15.38;1.75;;;13.20;99.90;;;;;;5012204;28;20041;-86
2023/10/14 08:31:38;;;;;;;15.15;2.08;;;13.20;99.90;;;;;;5011839;28;20481;-83
2023/10/14 08:34:07;;;;;;;15.35;1.92;;;13.30;99.90;;;;;;5011885;28;20060;-87
2023/10/14 08:36:33;;;;;;;14.25;1.70;;;13.30;99.90;;;;;;5011858;28;20049;-82
2023/10/14 08:38:58;;;;;;;13.68;2.05;;;13.40;99.90;;;;;;5011895;28;20397;-82
2023/10/14 08:41:26;;;;;;;18.88;2.28;;;13.50;99.90;;;;;;5011823;28;20125;-87
2023/10/14 08:43:56;;;;;;;16.10;2.22;;;13.50;99.90;;;;;;5011989;28;20046;-87
2023/10/14 08:46:29;;;;;;;12.93;2.58;;;13.50;99.90;;;;;;5011644;28;20136;-84
2023/10/14 08:48:55;;;;;;;13.25;2.08;;;13.50;99.90;;;;;;5012148;28;20045;-87
2023/10/14 08:51:25;;;;;;;14.68;2.13;;;13.50;99.90;;;;;;5012870;28;20049;-86
2023/10/14 08:53:53;;;;;;;8.43;1.38;;;13.40;99.90;;;;;;5011733;28;20049;-87
2023/10/14 08:56:22;;;;;;;12.68;1.77;;;13.40;99.90;;;;;;5011997;28;20042;-91
2023/10/14 08:58:49;;;;;;;10.73;1.30;;;13.30;99.90;;;;;;5013175;28;20056;-87
2023/10/14 09:01:16;;;;;;;12.73;1.90;;;13.20;99.90;;;;;;5011556;28;20137;-92
2023/10/14 09:03:49;;;;;;;10.35;2.00;;;13.20;99.90;;;;;;5014620;28;20497;-84
2023/10/14 09:06:16;;;;;;;16.13;2.60;;;13.20;99.90;;;;;;5016635;28;20081;-85
2023/10/14 09:08:44;;;;;;;9.48;1.60;;;13.30;99.90;;;;;;5015230;28;20445;-84
2023/10/14 09:11:26;;;;;;;9.50;1.48;;;13.30;99.90;;;;;;5016289;28;20478;-84
2023/10/14 09:14:14;;;;;;;10.50;2.00;;;13.40;99.90;;;;;;5014786;28;20401;-85
2023/10/14 09:16:41;;;;;;;14.52;2.30;;;13.50;99.90;;;;;;5016398;28;20103;-89
2023/10/14 09:19:07;;;;;;;12.55;2.33;;;13.70;99.90;;;;;;5015148;28;20072;-84
2023/10/14 09:21:44;;;;;;;16.88;1.52;;;13.50;99.90;;;;;;5015871;28;20486;-81
2023/10/14 09:24:10;;;;;;;8.57;1.00;;;13.30;99.90;;;;;;5015848;28;20129;-91
2023/10/14 09:26:45;;;;;;;8.10;1.20;;;13.20;99.90;;;;;;5014666;28;20148;-88
2023/10/14 09:29:11;;;;;;;6.53;0.70;;;13.00;99.90;;;;;;5014669;28;20049;-86
2023/10/14 09:31:38;;;;;;;9.90;1.00;;;12.90;99.90;;;;;;5015020;28;20046;-91
2023/10/14 09:34:04;;;;;;;6.28;1.58;;;13.00;99.90;;;;;;5014822;28;20045;-87
2023/10/14 09:36:34;;;;;;;6.95;1.00;;;13.10;99.90;;;;;;5014817;28;20469;-86
2023/10/14 09:39:11;;;;;;;8.05;1.10;;;13.20;99.90;;;;;;5015969;28;20100;-86
2023/10/14 09:41:38;;;;;;;10.95;1.42;;;13.20;99.90;;;;;;5015702;28;20046;-90
2023/10/14 09:44:06;;;;;;;6.97;1.65;;;13.40;99.90;;;;;;5014368;28;20050;-88
2023/10/14 09:46:34;;;;;;;15.20;2.28;;;13.40;99.90;;;;;;5014426;28;20049;-86
2023/10/14 09:49:01;;;;;;;12.80;1.50;;;13.40;99.90;;;;;;5014607;28;20042;-88
2023/10/14 09:51:28;;;;;;;13.57;1.98;;;13.60;99.90;;;;;;5014233;28;20413;-86
2023/10/14 09:53:54;;;;;;;10.57;1.20;;;13.70;99.90;;;;;;5014207;28;20107;-85
2023/10/14 09:56:22;;;;;;;8.30;1.63;;;13.70;99.90;;;;;;5014132;28;20498;-86
2023/10/14 09:58:48;;;;;;;14.77;3.15;;;13.80;99.90;;;;;;5014099;28;20054;-85
2023/10/14 10:01:17;;;;;;;12.85;1.92;;;13.80;99.90;;;;;;5014118;28;20049;-88
2023/10/14 10:04:03;;;;;;;11.73;1.98;;;13.90;99.90;;;;;;5014584;28;20073;-89
2023/10/14 10:06:48;;;;;;;13.48;1.80;;;14.00;99.90;;;;;;5014600;28;20083;-90
2023/10/14 10:09:54;;;;;;;11.70;1.88;;;14.20;99.90;;;;;;5015541;28;20096;-89
2023/10/14 10:12:22;;;;;;;12.32;2.00;;;14.10;99.90;;;;;;5014215;28;20458;-86
2023/10/14 10:14:57;;;;;;;10.45;2.13;;;14.00;99.90;;;;;;5013840;28;20064;-87
2023/10/14 10:17:24;;;;;;;17.58;2.30;;;14.00;99.90;;;;;;5014115;28;20056;-91
2023/10/14 10:20:25;;;;;;;13.95;1.83;;;14.00;99.90;;;;;;5013883;28;20402;-86
2023/10/14 10:22:55;;;;;;;13.57;2.28;;;14.00;99.90;;;;;;5013207;28;20137;-86
2023/10/14 10:25:22;;;;;;;13.68;2.25;;;14.10;99.90;;;;;;5015055;28;20046;-86
2023/10/14 10:27:55;;;;;;;15.45;1.80;;;14.00;99.90;;;;;;5013872;28;20081;-88
2023/10/14 10:30:22;;;;;;;18.33;2.63;;;14.00;99.90;;;;;;5013681;28;20056;-84
2023/10/14 10:32:50;;;;;;;18.13;2.13;;;14.00;99.90;;;;;;5014737;28;20486;-87
2023/10/14 10:35:20;;;;;;;15.98;2.10;;;14.00;99.90;;;;;;5013654;28;20089;-88
2023/10/14 10:37:56;;;;;;;15.13;2.13;;;14.10;99.90;;;;;;5013465;28;20088;-88
2023/10/14 10:40:27;;;;;;;16.80;1.88;;;14.10;99.90;;;;;;5013396;28;20054;-85
2023/10/14 10:43:07;;;;;;;15.35;2.33;;;14.20;99.90;;;;;;5013620;28;20100;-89
2023/10/14 10:45:34;;;;;;;13.13;2.05;;;14.30;99.90;;;;;;5013304;28;20053;-91
2023/10/14 10:48:03;;;;;;;11.85;2.25;;;14.30;99.90;;;;;;5013844;28;20049;-89
2023/10/14 10:50:40;;;;;;;17.38;2.08;;;14.40;99.90;;;;;;5015311;28;20573;-86
2023/10/14 10:53:08;;;;;;;11.57;1.80;;;14.30;99.90;;;;;;5014398;28;20054;-90
2023/10/14 10:55:40;;;;;;;9.40;1.85;;;14.30;99.90;;;;;;5015445;28;20445;-89
2023/10/14 10:58:08;;;;;;;11.88;3.28;;;14.40;99.90;;;;;;5014087;28;20081;-87
2023/10/14 11:00:34;;;;;;;10.50;1.63;;;14.40;99.90;;;;;;5013033;28;20057;-92
2023/10/14 11:03:02;;;;;;;13.45;2.03;;;14.20;99.90;;;;;;5013556;28;20049;-91
2023/10/14 11:05:29;;;;;;;11.13;2.00;;;14.30;99.90;;;;;;5013658;28;20080;-88
2023/10/14 11:07:56;;;;;;;12.30;2.20;;;14.20;99.90;;;;;;5013402;28;20084;-88
2023/10/14 11:10:25;;;;;;;13.25;2.22;;;14.20;99.90;;;;;;5014659;28;20411;-90
2023/10/14 11:12:52;;;;;;;10.57;1.80;;;14.30;99.90;;;;;;5012963;28;20550;-87
2023/10/14 11:15:19;;;;;;;11.77;1.75;;;14.30;99.90;;;;;;5012896;28;20117;-90
2023/10/14 11:17:46;;;;;;;9.60;1.63;;;14.40;99.90;;;;;;5012789;28;20041;-88
2023/10/14 11:20:15;;;;;;;9.68;1.40;;;14.30;99.90;;;;;;5014308;28;20086;-84
2023/10/14 11:22:43;;;;;;;12.55;1.38;;;14.40;99.90;;;;;;5015987;28;20202;-89
2023/10/14 11:25:13;;;;;;;11.25;1.50;;;14.30;99.90;;;;;;5032093;28;20065;-83
2023/10/14 11:27:41;;;;;;;16.35;2.00;;;14.30;99.90;;;;;;5033627;28;20068;-86
2023/10/14 11:30:11;;;;;;;9.88;2.50;;;14.30;99.90;;;;;;5032173;28;20057;-84
2023/10/14 11:32:43;;;;;;;10.75;1.85;;;14.40;99.90;;;;;;5033404;28;20412;-82
2023/10/14 11:35:10;;;;;;;11.60;2.40;;;14.40;99.90;;;;;;5032600;28;20076;-85
2023/10/14 11:37:36;;;;;;;8.77;1.70;;;14.40;99.90;;;;;;5032185;28;20303;-86
2023/10/14 11:40:14;;;;;;;10.82;2.35;;;14.40;99.90;;;;;;5033237;28;20045;-84
2023/10/14 11:42:41;;;;;;;8.90;1.92;;;14.40;99.90;;;;;;5033343;28;20045;-84
2023/10/14 11:45:07;;;;;;;9.75;1.65;;;14.50;99.90;;;;;;5032323;28;20485;-89
2023/10/14 11:47:37;;;;;;;11.45;2.10;;;14.40;99.90;;;;;;5032518;28;20389;-87
2023/10/14 11:50:13;;;;;;;8.10;1.67;;;14.40;99.90;;;;;;5033824;28;20052;-96
2023/10/14 11:52:42;;;;;;;11.05;2.55;;;14.40;99.90;;;;;;5034162;28;20049;-91
2023/10/14 11:55:14;;;;;;;12.13;2.00;;;14.40;99.90;;;;;;5031849;28;20038;-88
2023/10/14 11:57:48;;;;;;;14.95;2.38;;;14.50;99.90;;;;;;5031447;28;20038;-88
2023/10/14 12:00:20;;;;;;;10.73;1.90;;;14.50;99.90;;;;;;5032228;28;20045;-90
2023/10/14 12:02:47;;;;;;;9.82;1.33;;;14.60;99.90;;;;;;5032090;28;20052;-91
2023/10/14 12:05:16;;;;;;;12.27;1.65;;;14.60;99.90;;;;;;5032009;28;20045;-84
2023/10/14 12:07:51;;;;;;;16.52;2.20;;;14.60;99.90;;;;;;5032139;28;20042;-85
2023/10/14 12:10:17;;;;;;;15.18;2.15;;;14.60;99.90;;;;;;5032340;28;20045;-87
2023/10/14 12:12:51;;;;;;;15.25;1.90;;;14.70;99.90;;;;;;5031850;28;20564;-95
2023/10/14 12:15:18;;;;;;;10.90;1.80;;;14.70;99.90;;;;;;5031691;28;20132;-89
2023/10/14 12:17:45;;;;;;;10.02;1.70;;;14.70;99.90;;;;;;5032255;28;20050;-86
2023/10/14 12:20:11;;;;;;;13.48;2.17;;;14.50;99.90;;;;;;5032529;28;20057;-89
2023/10/14 12:22:39;;;;;;;20.60;2.08;;;14.40;99.90;;;;;;5031895;28;20050;-92
2023/10/14 12:25:08;;;;;;;13.00;1.73;;;14.30;99.90;;;;;;5031920;28;20081;-90
2023/10/14 12:27:35;;;;;;;13.10;1.75;;;14.30;99.90;;;;;;5033196;28;20460;-85
2023/10/14 12:30:01;;;;;;;10.48;1.92;;;14.20;99.90;;;;;;5032039;28;20068;-89
2023/10/14 12:32:30;;;;;;;8.80;1.40;;;14.30;99.90;;;;;;5031896;28;20041;-85
2023/10/14 12:34:58;;;;;;;13.43;1.80;;;14.30;99.90;;;;;;5033143;28;20120;-90
2023/10/14 12:37:25;;;;;;;9.13;1.20;;;14.40;99.90;;;;;;5034165;28;20045;-88
2023/10/14 12:40:12;;;;;;;10.27;1.85;;;14.50;99.90;;;;;;5035851;28;20061;-93
2023/10/14 12:42:47;;;;;;;13.02;1.85;;;14.50;99.90;;;;;;5035856;28;20080;-86
2023/10/14 12:45:23;;;;;;;13.10;1.55;;;14.50;99.90;;;;;;5035273;28;20049;-87
2023/10/14 12:47:49;;;;;;;9.40;1.65;;;14.40;99.90;;;;;;5035491;28;20098;-86
2023/10/14 12:50:19;;;;;;;14.30;2.35;;;14.50;99.90;;;;;;5034993;28;20082;-84
2023/10/14 12:53:05;;;;;;;12.65;2.40;;;14.50;99.90;;;;;;5035082;28;20052;-84
2023/10/14 12:55:31;;;;;;;14.43;2.35;;;14.50;99.90;;;;;;5035528;28;20068;-88
2023/10/14 12:57:57;;;;;;;11.80;1.88;;;14.40;99.90;;;;;;5035107;28;20481;-89
2023/10/14 13:00:29;;;;;;;4.82;1.60;;;14.20;99.90;;;;;;5035149;28;20125;-89
2023/10/14 13:02:59;;;;;;;11.30;2.15;;;14.20;99.90;;;;;;5035239;28;20084;-83
2023/10/14 13:05:25;;;;;;;6.97;1.65;;;14.10;99.90;;;;;;5036016;28;20452;-86
2023/10/14 13:07:52;;;;;;;9.10;1.50;;;13.90;99.90;;;;;;5035041;28;20124;-85
2023/10/14 13:10:20;;;;;;;10.27;1.67;;;14.00;99.90;;;;;;5036298;28;20048;-95
2023/10/14 13:12:51;;;;;;;8.57;1.70;;;14.10;99.90;;;;;;5035340;28;20088;-88
2023/10/14 13:15:28;;;;;;;14.35;3.28;;;14.10;99.90;;;;;;5034937;28;20046;-86
2023/10/14 13:17:56;;;;;;;18.35;4.30;;;14.00;99.90;;;;;;5035403;28;20373;-92